createdAt,value
2022-10-10T00:01:22.294Z,101586.97
2022-10-10T00:03:50.107Z,101593.94
2022-10-10T00:06:18.843Z,101586.38
2022-10-10T00:08:46.903Z,101582.84
2022-10-10T00:11:16.994Z,101564.38
2022-10-10T00:13:45.554Z,101585.94
2022-10-10T00:16:14.338Z,101573.28
2022-10-10T00:18:43.251Z,101582.38
2022-10-10T00:21:11.999Z,101584.09
2022-10-10T00:23:40.097Z,101584.88
2022-10-10T00:26:09.227Z,101581.47
2022-10-10T00:28:38.926Z,101586.69
2022-10-10T00:31:09.067Z,101588.41
2022-10-10T00:33:37.795Z,101583.16
2022-10-10T00:36:06.814Z,101582.59
2022-10-10T00:38:34.954Z,101588.03
2022-10-10T00:41:04.065Z,101587.97
2022-10-10T00:43:32.456Z,101592.97
2022-10-10T00:46:00.680Z,101584.41
2022-10-10T00:48:41.226Z,101584.34
2022-10-10T00:51:15.585Z,101576.50
2022-10-10T00:53:50.515Z,101578.31
2022-10-10T00:56:23.002Z,101577.81
2022-10-10T00:58:54.101Z,101579.25
2022-10-10T01:01:22.546Z,101572.63
2022-10-10T01:03:50.450Z,101575.06
2022-10-10T01:06:18.310Z,101573.34
2022-10-10T01:08:46.069Z,101576.91
2022-10-10T01:11:25.818Z,101576.91
2022-10-10T01:14:08.941Z,101577.00
2022-10-10T01:16:48.517Z,101574.34
2022-10-10T01:19:28.262Z,101575.09
2022-10-10T01:22:05.561Z,101571.56
2022-10-10T01:24:56.919Z,101582.72
2022-10-10T01:27:31.619Z,101578.28
2022-10-10T01:30:06.073Z,101577.47
2022-10-10T01:32:54.475Z,101574.09
2022-10-10T01:35:45.467Z,101568.19
2022-10-10T01:38:44.185Z,101569.81
2022-10-10T01:41:34.626Z,101570.69
2022-10-10T01:44:02.592Z,101581.72
2022-10-10T01:46:32.253Z,101576.31
2022-10-10T01:49:01.784Z,101583.47
2022-10-10T01:51:47.037Z,101578.25
2022-10-10T01:54:40.276Z,101573.06
2022-10-10T01:57:14.160Z,101571.41
2022-10-10T02:00:09.104Z,101568.81
2022-10-10T02:03:07.339Z,101572.25
2022-10-10T02:05:44.036Z,101570.53
2022-10-10T02:08:18.767Z,101571.34
2022-10-10T02:11:00.755Z,101570.38
2022-10-10T02:13:38.597Z,101561.22
2022-10-10T02:16:15.669Z,101566.31
2022-10-10T02:18:47.024Z,101567.84
2022-10-10T02:21:16.634Z,101565.19
2022-10-10T02:23:48.391Z,101574.41
2022-10-10T02:26:18.977Z,101562.22
2022-10-10T02:28:53.795Z,101566.47
2022-10-10T02:31:54.569Z,101569.91
2022-10-10T02:34:27.955Z,101565.59
2022-10-10T02:37:03.105Z,101567.63
2022-10-10T02:39:37.088Z,101578.03
2022-10-10T02:42:08.311Z,101570.38
2022-10-10T02:44:37.327Z,101570.22
2022-10-10T02:47:05.493Z,101570.13
2022-10-10T02:49:35.009Z,101560.00
2022-10-10T02:52:03.680Z,101571.41
2022-10-10T02:54:31.401Z,101573.13
2022-10-10T02:56:59.679Z,101576.34
2022-10-10T02:59:27.350Z,101574.53
2022-10-10T03:01:55.418Z,101571.78
2022-10-10T03:04:23.188Z,101561.38
2022-10-10T03:06:51.501Z,101557.94
2022-10-10T03:09:19.149Z,101546.75
2022-10-10T03:11:47.067Z,101550.44
2022-10-10T03:14:14.740Z,101550.13
2022-10-10T03:16:42.570Z,101555.25
2022-10-10T03:19:10.314Z,101545.81
2022-10-10T03:21:38.023Z,101551.00
2022-10-10T03:24:06.532Z,101552.03
2022-10-10T03:26:34.534Z,101546.97
2022-10-10T03:29:03.703Z,101532.47
2022-10-10T03:31:32.352Z,101536.81
2022-10-10T03:34:00.517Z,101537.09
2022-10-10T03:36:28.370Z,101551.50
2022-10-10T03:38:56.249Z,101544.56
2022-10-10T03:41:24.213Z,101550.44
2022-10-10T03:43:52.400Z,101547.88
2022-10-10T03:46:20.924Z,101560.78
2022-10-10T03:48:49.204Z,101554.53
2022-10-10T03:51:16.864Z,101550.09
2022-10-10T03:53:44.772Z,101558.78
2022-10-10T03:56:12.569Z,101551.19
2022-10-10T03:58:40.570Z,101555.34
2022-10-10T04:01:08.587Z,101562.22
2022-10-10T04:03:36.488Z,101559.59
2022-10-10T04:06:04.411Z,101553.41
2022-10-10T04:08:32.610Z,101551.78
2022-10-10T04:11:00.334Z,101537.31
2022-10-10T04:13:28.305Z,101549.44
2022-10-10T04:15:57.408Z,101546.84
2022-10-10T04:18:25.955Z,101538.44
2022-10-10T04:20:53.885Z,101545.06
2022-10-10T04:23:22.116Z,101550.72
2022-10-10T04:25:53.170Z,101550.94
2022-10-10T04:28:21.228Z,101548.34
2022-10-10T04:30:49.208Z,101536.09
2022-10-10T04:33:17.535Z,101542.59
2022-10-10T04:35:47.208Z,101531.59
2022-10-10T04:38:15.047Z,101536.72
2022-10-10T04:40:42.721Z,101549.63
2022-10-10T04:43:11.821Z,101548.66
2022-10-10T04:45:40.204Z,101542.50
2022-10-10T04:48:08.131Z,101548.56
2022-10-10T04:50:35.865Z,101548.59
2022-10-10T04:53:03.915Z,101547.22
2022-10-10T04:55:31.649Z,101552.13
2022-10-10T04:57:59.720Z,101549.63
2022-10-10T05:00:27.683Z,101538.28
2022-10-10T05:02:56.074Z,101545.94
2022-10-10T05:05:23.942Z,101540.03
2022-10-10T05:07:55.456Z,101541.78
2022-10-10T05:10:24.628Z,101542.66
2022-10-10T05:12:53.404Z,101540.03
2022-10-10T05:15:22.729Z,101531.09
2022-10-10T05:17:50.780Z,101532.63
2022-10-10T05:20:18.621Z,101536.03
2022-10-10T05:22:46.781Z,101541.78
2022-10-10T05:25:14.542Z,101547.94
2022-10-10T05:27:42.467Z,101538.28
2022-10-10T05:30:10.614Z,101529.19
2022-10-10T05:32:38.710Z,101536.03
2022-10-10T05:35:07.513Z,101541.50
2022-10-10T05:37:35.489Z,101534.78
2022-10-10T05:40:03.565Z,101537.22
2022-10-10T05:42:31.425Z,101538.06
2022-10-10T05:44:59.261Z,101534.72
2022-10-10T05:47:28.193Z,101530.66
2022-10-10T05:49:56.112Z,101531.44
2022-10-10T05:52:23.946Z,101532.44
2022-10-10T05:54:52.515Z,101538.56
2022-10-10T05:57:20.468Z,101524.97
2022-10-10T05:59:48.282Z,101530.22
2022-10-10T06:02:16.451Z,101517.47
2022-10-10T06:04:44.437Z,101516.78
2022-10-10T06:07:12.458Z,101515.41
2022-10-10T06:09:40.380Z,101513.94
2022-10-10T06:12:08.588Z,101516.94
2022-10-10T06:14:36.247Z,101512.59
2022-10-10T06:17:04.652Z,101514.88
2022-10-10T06:19:32.339Z,101519.34
2022-10-10T06:22:00.540Z,101514.03
2022-10-10T06:24:28.198Z,101516.69
2022-10-10T06:26:56.231Z,101518.16
2022-10-10T06:29:23.972Z,101520.94
2022-10-10T06:31:51.901Z,101518.00
2022-10-10T06:34:19.689Z,101518.13
2022-10-10T06:36:49.541Z,101523.56
2022-10-10T06:39:17.348Z,101520.53
2022-10-10T06:41:45.365Z,101536.41
2022-10-10T06:44:13.093Z,101516.44
2022-10-10T06:46:41.046Z,101522.78
2022-10-10T06:49:08.763Z,101522.72
2022-10-10T06:51:36.722Z,101525.38
2022-10-10T06:54:05.118Z,101528.00
2022-10-10T06:56:33.084Z,101524.47
2022-10-10T06:59:01.111Z,101524.53
2022-10-10T07:01:29.187Z,101519.31
2022-10-10T07:03:56.924Z,101522.81
2022-10-10T07:06:25.074Z,101510.66
2022-10-10T07:08:52.803Z,101508.03
2022-10-10T07:11:20.710Z,101511.50
2022-10-10T07:13:51.408Z,101512.31
2022-10-10T07:16:19.652Z,101512.28
2022-10-10T07:18:47.446Z,101502.63
2022-10-10T07:21:15.718Z,101503.44
2022-10-10T07:23:43.516Z,101505.88
2022-10-10T07:26:15.172Z,101507.31
2022-10-10T07:28:43.080Z,101516.16
2022-10-10T07:31:12.064Z,101515.94
2022-10-10T07:33:49.871Z,101513.28
2022-10-10T07:36:19.778Z,101511.94
2022-10-10T07:38:54.775Z,101515.13
2022-10-10T07:41:23.056Z,101510.06
2022-10-10T07:43:55.965Z,101514.13
2022-10-10T07:46:24.830Z,101522.47
2022-10-10T07:48:52.574Z,101522.31
2022-10-10T07:51:20.613Z,101510.34
2022-10-10T07:53:48.393Z,101513.31
2022-10-10T07:56:16.305Z,101512.75
2022-10-10T07:58:43.972Z,101505.38
2022-10-10T08:01:13.347Z,101519.81
2022-10-10T08:03:41.570Z,101516.31
2022-10-10T08:06:15.366Z,101524.84
2022-10-10T08:08:50.935Z,101518.44
2022-10-10T08:11:21.485Z,101505.22
2022-10-10T08:13:50.081Z,101506.00
2022-10-10T08:16:18.787Z,101497.06
2022-10-10T08:18:46.698Z,101499.81
2022-10-10T08:21:15.741Z,101496.91
2022-10-10T08:23:44.010Z,101498.38
2022-10-10T08:26:14.914Z,101497.63
2022-10-10T08:28:43.730Z,101499.34
2022-10-10T08:31:18.226Z,101491.94
2022-10-10T08:33:46.559Z,101495.50
2022-10-10T08:36:20.944Z,101496.00
2022-10-10T08:38:48.818Z,101479.59
2022-10-10T08:41:35.200Z,101477.44
2022-10-10T08:44:23.185Z,101479.72
2022-10-10T08:47:09.499Z,101478.56
2022-10-10T08:49:49.777Z,101476.63
2022-10-10T08:52:20.766Z,101474.28
2022-10-10T08:54:50.058Z,101470.69
2022-10-10T08:57:33.463Z,101473.63
2022-10-10T09:00:07.684Z,101469.66
2022-10-10T09:02:53.038Z,101467.44
2022-10-10T09:05:31.860Z,101465.47
2022-10-10T09:08:02.771Z,101450.72
2022-10-10T09:10:39.493Z,101457.50
2022-10-10T09:13:23.435Z,101457.13
2022-10-10T09:16:17.658Z,101456.97
2022-10-10T09:19:24.238Z,101460.19
2022-10-10T09:21:57.297Z,101456.50
2022-10-10T09:24:32.420Z,101451.47
2022-10-10T09:27:09.593Z,101448.47
2022-10-10T09:29:44.502Z,101450.13
2022-10-10T09:32:14.362Z,101438.88
2022-10-10T09:34:48.178Z,101443.09
2022-10-10T09:37:42.332Z,101443.50
2022-10-10T09:40:31.359Z,101441.91
2022-10-10T09:43:10.902Z,101439.97
2022-10-10T09:45:46.637Z,101435.41
2022-10-10T09:48:14.475Z,101430.25
2022-10-10T09:50:43.920Z,101423.06
2022-10-10T09:53:16.178Z,101418.38
2022-10-10T09:55:46.485Z,101423.50
2022-10-10T09:58:35.602Z,101417.78
2022-10-10T10:01:14.780Z,101416.88
2022-10-10T10:03:42.926Z,101424.28
2022-10-10T10:06:20.770Z,101412.97
2022-10-10T10:08:53.525Z,101424.50
2022-10-10T10:11:28.823Z,101414.72
2022-10-10T10:13:57.980Z,101413.88
2022-10-10T10:16:33.421Z,101415.31
2022-10-10T10:19:01.588Z,101413.16
2022-10-10T10:21:31.350Z,101411.53
2022-10-10T10:24:01.656Z,101397.16
2022-10-10T10:26:49.260Z,101387.72
2022-10-10T10:29:33.131Z,101385.50
2022-10-10T10:32:06.726Z,101383.91
2022-10-10T10:34:47.827Z,101380.16
2022-10-10T10:37:30.614Z,101382.81
2022-10-10T10:40:16.931Z,101373.69
2022-10-10T10:43:00.191Z,101377.66
2022-10-10T10:45:59.073Z,101361.31
2022-10-10T10:48:40.044Z,101363.84
2022-10-10T10:51:22.894Z,101369.94
2022-10-10T10:54:24.023Z,101358.28
2022-10-10T10:57:40.832Z,101360.00
2022-10-10T11:00:33.001Z,101351.03
2022-10-10T11:05:16.125Z,101341.44
2022-10-10T11:06:54.258Z,101346.38
2022-10-10T11:09:50.234Z,101337.72
2022-10-10T11:12:37.102Z,101328.38
2022-10-10T11:15:19.286Z,101321.06
2022-10-10T11:18:03.309Z,101327.94
2022-10-10T11:20:37.177Z,101322.78
2022-10-10T11:23:42.202Z,101319.59
2022-10-10T11:26:35.360Z,101317.63
2022-10-10T11:29:05.299Z,101316.41
2022-10-10T11:31:40.468Z,101302.66
2022-10-10T11:34:20.385Z,101297.97
2022-10-10T11:36:48.912Z,101290.56
2022-10-10T11:39:23.793Z,101292.34
2022-10-10T11:41:58.060Z,101304.94
2022-10-10T11:44:35.149Z,101291.19
2022-10-10T11:47:48.251Z,101284.13
2022-10-10T11:50:29.002Z,101277.41
2022-10-10T11:53:15.395Z,101276.59
2022-10-10T11:56:12.777Z,101278.59
2022-10-10T11:58:54.424Z,101275.03
2022-10-10T12:01:40.438Z,101266.75
2022-10-10T12:04:08.520Z,101266.31
2022-10-10T12:06:41.440Z,101253.75
2022-10-10T12:09:37.900Z,101249.91
2022-10-10T12:12:13.054Z,101247.84
2022-10-10T12:14:48.193Z,101244.22
2022-10-10T12:17:39.909Z,101247.28
2022-10-10T12:20:26.553Z,101240.00
2022-10-10T12:23:19.594Z,101231.41
2022-10-10T12:25:47.969Z,101230.28
2022-10-10T12:28:15.764Z,101224.78
2022-10-10T12:30:58.277Z,101215.34
2022-10-10T12:33:29.338Z,101215.53
2022-10-10T12:35:57.353Z,101207.63
2022-10-10T12:38:28.056Z,101192.69
2022-10-10T12:41:04.746Z,101192.41
2022-10-10T12:43:52.179Z,101179.63
2022-10-10T12:46:34.603Z,101175.25
2022-10-10T12:49:05.156Z,101167.38
2022-10-10T12:51:36.126Z,101164.53
2022-10-10T12:54:06.577Z,101162.06
2022-10-10T12:56:39.787Z,101162.69
2022-10-10T12:59:23.859Z,101161.91
2022-10-10T13:01:57.583Z,101152.13
2022-10-10T13:04:28.423Z,101164.94
2022-10-10T13:07:02.034Z,101156.22
2022-10-10T13:09:35.831Z,101148.81
2022-10-10T13:12:20.961Z,101143.94
2022-10-10T13:14:48.984Z,101145.44
2022-10-10T13:17:41.721Z,101139.81
2022-10-10T13:20:26.663Z,101143.94
2022-10-10T13:22:55.795Z,101125.06
2022-10-10T13:25:24.411Z,101126.59
2022-10-10T13:27:52.298Z,101126.22
2022-10-10T13:30:25.477Z,101122.19
2022-10-10T13:32:54.922Z,101112.78
2022-10-10T13:35:26.743Z,101104.69
2022-10-10T13:37:59.925Z,101095.06
2022-10-10T13:40:28.616Z,101101.19
2022-10-10T13:42:58.624Z,101092.50
2022-10-10T13:45:30.940Z,101099.94
2022-10-10T13:48:02.391Z,101093.53
2022-10-10T13:50:48.752Z,101084.16
2022-10-10T13:53:31.541Z,101084.53
2022-10-10T13:55:59.674Z,101079.66
2022-10-10T13:58:31.874Z,101076.25
2022-10-10T14:01:02.873Z,101076.25
2022-10-10T14:03:33.187Z,101070.25
2022-10-10T14:06:01.423Z,101067.63
2022-10-10T14:08:33.760Z,101066.22
2022-10-10T14:11:07.837Z,101064.13
2022-10-10T14:13:38.724Z,101058.50
2022-10-10T14:16:13.696Z,101055.50
2022-10-10T14:18:41.516Z,101054.63
2022-10-10T14:21:09.582Z,101053.91
2022-10-10T14:23:38.559Z,101045.34
2022-10-10T14:26:11.171Z,101044.03
2022-10-10T14:28:39.924Z,101043.94
2022-10-10T14:31:08.082Z,101051.94
2022-10-10T14:33:36.379Z,101043.63
2022-10-10T14:36:04.460Z,101039.72
2022-10-10T14:38:32.913Z,101044.66
2022-10-10T14:41:01.822Z,101041.63
2022-10-10T14:43:30.561Z,101043.63
2022-10-10T14:45:58.257Z,101040.31
2022-10-10T14:48:26.201Z,101043.44
2022-10-10T14:50:53.902Z,101041.97
2022-10-10T14:53:21.887Z,101037.88
2022-10-10T14:55:55.248Z,101033.31
2022-10-10T14:58:24.148Z,101029.13
2022-10-10T15:00:53.127Z,101024.16
2022-10-10T15:03:21.658Z,101023.31
2022-10-10T15:05:49.618Z,101018.53
2022-10-10T15:08:18.952Z,101014.81
2022-10-10T15:10:47.695Z,101013.94
2022-10-10T15:13:16.824Z,101016.56
2022-10-10T15:15:46.422Z,101016.25
2022-10-10T15:18:40.908Z,101011.44
2022-10-10T15:21:09.940Z,101007.84
2022-10-10T15:23:38.047Z,101009.22
2022-10-10T15:26:06.307Z,101009.16
2022-10-10T15:28:34.594Z,101005.41
2022-10-10T15:31:03.167Z,101005.59
2022-10-10T15:33:31.152Z,101000.91
2022-10-10T15:36:09.542Z,101006.84
2022-10-10T15:38:39.550Z,100998.22
2022-10-10T15:41:10.260Z,100994.56
2022-10-10T15:43:42.924Z,100994.63
2022-10-10T15:46:10.853Z,100993.31
2022-10-10T15:48:38.798Z,100999.63
2022-10-10T15:51:08.168Z,100985.69
2022-10-10T15:53:37.591Z,100991.50
2022-10-10T15:56:13.353Z,100988.63
2022-10-10T15:58:43.055Z,100983.78
2022-10-10T16:01:13.796Z,100983.00
2022-10-10T16:03:42.431Z,100984.13
2022-10-10T16:06:11.582Z,100998.56
2022-10-10T16:08:39.951Z,101004.81
2022-10-10T16:11:10.260Z,101005.28
2022-10-10T16:13:39.977Z,101007.19
2022-10-10T16:16:10.581Z,101004.13
2022-10-10T16:18:41.164Z,100997.38
2022-10-10T16:21:14.134Z,100997.91
2022-10-10T16:23:42.114Z,100998.06
2022-10-10T16:26:22.228Z,100997.66
2022-10-10T16:28:50.793Z,100990.06
2022-10-10T16:31:19.786Z,100985.13
2022-10-10T16:33:48.941Z,100993.97
2022-10-10T16:36:22.278Z,100990.75
2022-10-10T16:38:51.059Z,100995.38
2022-10-10T16:41:35.578Z,101003.41
2022-10-10T16:44:07.592Z,100998.44
2022-10-10T16:46:35.531Z,100998.44
2022-10-10T16:49:04.686Z,100991.56
2022-10-10T16:51:32.476Z,100991.78
2022-10-10T16:54:02.270Z,100992.72
2022-10-10T16:56:30.521Z,100998.81
2022-10-10T16:58:59.470Z,101001.63
2022-10-10T17:01:27.649Z,100997.44
2022-10-10T17:03:57.881Z,100986.81
2022-10-10T17:06:25.677Z,100985.22
2022-10-10T17:08:56.251Z,100990.50
2022-10-10T17:11:25.677Z,100986.94
2022-10-10T17:13:53.651Z,100986.06
2022-10-10T17:19:12.328Z,100976.66
2022-10-10T17:21:40.415Z,100971.31
2022-10-10T17:24:08.408Z,100975.59
2022-10-10T17:26:36.434Z,100967.91
2022-10-10T17:29:04.251Z,100963.72
2022-10-10T17:31:32.634Z,100954.31
2022-10-10T17:34:00.512Z,100953.41
2022-10-10T17:36:28.861Z,100951.84
2022-10-10T17:38:57.197Z,100943.19
2022-10-10T17:41:25.080Z,100940.72
2022-10-10T17:43:53.443Z,100938.22
2022-10-10T17:46:34.933Z,100933.91
2022-10-10T17:49:05.762Z,100929.50
2022-10-10T17:51:34.425Z,100933.84
2022-10-10T17:54:03.508Z,100928.47
2022-10-10T17:56:31.818Z,100922.59
2022-10-10T17:59:01.980Z,100925.25
2022-10-10T18:01:33.096Z,100914.66
2022-10-10T18:04:02.153Z,100927.09
2022-10-10T18:06:30.455Z,100918.75
2022-10-10T18:08:58.607Z,100925.59
2022-10-10T18:11:30.896Z,100921.22
2022-10-10T18:14:01.682Z,100921.41
2022-10-10T18:16:33.931Z,100919.69
2022-10-10T18:19:03.672Z,100917.97
2022-10-10T18:21:31.623Z,100905.72
2022-10-10T18:24:00.704Z,100906.22
2022-10-10T18:26:30.473Z,100915.78
2022-10-10T18:28:58.807Z,100909.91
2022-10-10T18:31:38.166Z,100910.06
2022-10-10T18:34:07.019Z,100918.88
2022-10-10T18:36:37.328Z,100910.88
2022-10-10T18:39:08.078Z,100908.34
2022-10-10T18:41:36.103Z,100912.03
2022-10-10T18:44:06.849Z,100914.66
2022-10-10T18:46:35.832Z,100898.22
2022-10-10T18:49:06.119Z,100904.09
2022-10-10T18:51:34.090Z,100897.13
2022-10-10T18:54:08.489Z,100896.25
2022-10-10T18:56:38.874Z,100893.59
2022-10-10T18:59:11.734Z,100884.00
2022-10-10T19:01:40.415Z,100881.66
2022-10-10T19:04:10.313Z,100889.41
2022-10-10T19:06:39.821Z,100887.75
2022-10-10T19:09:12.001Z,100878.91
2022-10-10T19:11:42.347Z,100876.25
2022-10-10T19:14:16.075Z,100878.22
2022-10-10T19:16:45.168Z,100873.97
2022-10-10T19:19:18.478Z,100873.88
2022-10-10T19:21:48.066Z,100882.78
2022-10-10T19:24:20.907Z,100881.25
2022-10-10T19:26:55.723Z,100879.59
2022-10-10T19:29:27.318Z,100877.75
2022-10-10T19:31:56.208Z,100876.13
2022-10-10T19:34:24.707Z,100875.44
2022-10-10T19:36:53.583Z,100867.66
2022-10-10T19:39:21.506Z,100862.47
2022-10-10T19:41:49.612Z,100859.03
2022-10-10T19:44:17.770Z,100849.50
2022-10-10T19:46:45.687Z,100855.53
2022-10-10T19:49:13.423Z,100856.44
2022-10-10T19:51:41.286Z,100854.81
2022-10-10T19:54:09.380Z,100848.97
2022-10-10T19:56:37.204Z,100846.94
2022-10-10T19:59:06.078Z,100848.81
2022-10-10T20:01:34.320Z,100847.19
2022-10-10T20:04:02.314Z,100835.13
2022-10-10T20:06:30.259Z,100831.63
2022-10-10T20:08:58.304Z,100836.66
2022-10-10T20:11:26.565Z,100833.41
2022-10-10T20:13:55.965Z,100830.03
2022-10-10T20:16:26.628Z,100826.38
2022-10-10T20:18:56.317Z,100809.19
2022-10-10T20:21:31.509Z,100823.19
2022-10-10T20:24:02.191Z,100822.44
2022-10-10T20:26:30.321Z,100819.66
2022-10-10T20:28:58.541Z,100822.38
2022-10-10T20:31:29.713Z,100814.56
2022-10-10T20:34:00.781Z,100823.25
2022-10-10T20:36:30.755Z,100809.41
2022-10-10T20:39:01.497Z,100803.28
2022-10-10T20:41:32.950Z,100804.09
2022-10-10T20:44:03.405Z,100805.97
2022-10-10T20:46:34.988Z,100804.19
2022-10-10T20:49:05.375Z,100812.06
2022-10-10T20:51:33.481Z,100800.75
2022-10-10T20:54:03.776Z,100807.63
2022-10-10T20:56:33.588Z,100798.16
2022-10-10T20:59:02.234Z,100794.81
2022-10-10T21:01:31.221Z,100801.00
2022-10-10T21:03:59.863Z,100793.31
2022-10-10T21:06:30.108Z,100789.78
2022-10-10T21:09:00.692Z,100791.69
2022-10-10T21:11:29.167Z,100786.25
2022-10-10T21:13:59.198Z,100778.53
2022-10-10T21:16:32.811Z,100778.44
2022-10-10T21:19:01.146Z,100780.25
2022-10-10T21:21:32.611Z,100781.97
2022-10-10T21:24:02.369Z,100776.44
2022-10-10T21:26:31.092Z,100761.00
2022-10-10T21:29:02.894Z,100772.09
2022-10-10T21:31:38.081Z,100772.19
2022-10-10T21:34:08.250Z,100769.47
2022-10-10T21:36:37.302Z,100759.97
2022-10-10T21:39:08.496Z,100767.56
2022-10-10T21:41:37.832Z,100764.13
2022-10-10T21:44:06.136Z,100752.91
2022-10-10T21:46:36.735Z,100761.59
2022-10-10T21:49:10.676Z,100756.91
2022-10-10T21:51:41.460Z,100759.53
2022-10-10T21:54:10.334Z,100760.19
2022-10-10T21:56:39.349Z,100756.31
2022-10-10T21:59:07.326Z,100752.19
2022-10-10T22:01:37.398Z,100755.72
2022-10-10T22:04:05.746Z,100756.91
2022-10-10T22:06:33.818Z,100747.50
2022-10-10T22:09:02.762Z,100750.34
2022-10-10T22:11:32.390Z,100745.94
2022-10-10T22:14:02.487Z,100745.75
2022-10-10T22:16:32.066Z,100743.97
2022-10-10T22:18:59.948Z,100738.59
2022-10-10T22:21:31.866Z,100737.81
2022-10-10T22:24:02.824Z,100740.56
2022-10-10T22:26:31.565Z,100722.63
2022-10-10T22:28:59.567Z,100712.97
2022-10-10T22:31:27.493Z,100731.47
2022-10-10T22:33:55.417Z,100732.50
2022-10-10T22:36:23.140Z,100730.72
2022-10-10T22:38:51.127Z,100721.34
2022-10-10T22:41:18.863Z,100717.16
2022-10-10T22:43:46.824Z,100716.06
2022-10-10T22:46:14.921Z,100720.81
2022-10-10T22:48:42.636Z,100718.88
2022-10-10T22:51:16.228Z,100708.38
2022-10-10T22:53:45.509Z,100712.56
2022-10-10T22:56:15.970Z,100709.22
2022-10-10T22:58:44.030Z,100705.53
2022-10-10T23:01:17.446Z,100706.44
2022-10-10T23:03:45.599Z,100703.91
2022-10-10T23:06:13.928Z,100703.00
2022-10-10T23:08:41.710Z,100701.06
2022-10-10T23:11:09.516Z,100706.22
2022-10-10T23:13:37.406Z,100695.38
2022-10-10T23:16:05.543Z,100697.44
2022-10-10T23:18:33.731Z,100690.63
2022-10-10T23:21:01.631Z,100693.72
2022-10-10T23:23:29.764Z,100691.69
2022-10-10T23:25:57.536Z,100686.66
2022-10-10T23:28:25.538Z,100685.66
2022-10-10T23:30:53.362Z,100688.44
2022-10-10T23:33:21.094Z,100688.44
2022-10-10T23:36:01.554Z,100678.06
2022-10-10T23:38:30.540Z,100681.06
2022-10-10T23:40:58.477Z,100686.81
2022-10-10T23:43:26.298Z,100676.53
2022-10-10T23:45:54.022Z,100676.09
2022-10-10T23:48:21.947Z,100670.59
2022-10-10T23:50:49.742Z,100669.16
2022-10-10T23:53:17.622Z,100672.91
2022-10-10T23:55:47.135Z,100668.97
2022-10-10T23:58:15.841Z,100665.28
